Latest Weather Observations for Canberra

IDN60801

Issued at 5:04 pm EST Saturday 30 July 2016 (issued every 30 minutes, with the page automatically refreshed every 10 minutes)

About weather observations | Map of weather stations | Latest weather observations for NSW | Other Formats
Station Details ID: 070351 Name: CANBERRA AIRPORT Lat: -35.31 Lon: 149.20 Height: 577.05 m
Data from the previous 72 hours. | See also: Recent months at Canberra
Date/Time
EST
Temp
°C
App
Temp
°C
Dew
Point
°C
Rel
Hum
%
Delta-T
°C
Wind Press
QNH
hPa
Press
MSL
hPa
Rain since
9am
mm
Dir  Spd
km/h
Gust
km/h
Spd
kts
Gust
kts
30/04:30pm 11.0 5.8 2.6 56 3.7 NNW 19 22 10 12 1019.4 1020.6 0.0
30/04:00pm 11.3 6.9 2.9 56 3.8 NNW 15 22 8 12 1019.6 1020.9 0.0
30/03:30pm 11.4 6.6 2.4 54 4.0 NNW 17 26 9 14 1020.0 1021.2 0.0
30/03:00pm 11.6 7.5 4.3 61 3.4 N 15 19 8 10 1020.0 1021.2 0.0
30/02:30pm 10.8 7.0 4.0 63 3.1 NNW 13 20 7 11 1020.4 1021.6 0.0
30/02:00pm 10.0 6.3 4.6 69 2.5 N 13 19 7 10 1020.5 1021.7 0.0
30/01:30pm 8.6 6.1 3.8 72 2.2 NNW 6 11 3 6 1021.1 1022.4 0.0
30/01:19pm 8.1 5.0 3.6 73 2.0 NNE 9 15 5 8 1021.4 1022.7 0.0
30/01:00pm 7.1 4.1 4.2 82 1.3 W 9 13 5 7 1022.1 1023.3 0.0
30/12:30pm 6.5 3.1 4.0 84 1.1 W 11 13 6 7 1022.4 1023.7 0.0
30/12:00pm 6.2 3.2 4.0 86 1.0 NW 9 13 5 7 1022.8 1024.1 0.0
30/11:30am 5.7 3.1 4.2 90 0.7 NW 7 11 4 6 1023.2 1024.5 0.0
30/11:00am 5.1 2.1 4.1 93 0.4 NNW 9 13 5 7 1023.8 1025.0 0.0
30/10:30am 4.2 1.6 3.3 94 0.4 ESE 6 9 3 5 1024.0 1025.3 0.0
30/10:00am 3.8 1.9 3.1 95 0.3 N 2 9 1 5 1024.1 1025.4 0.0
30/09:30am 3.6 1.0 3.2 97 0.2 NE 6 9 3 5 1024.1 1025.4 0.0
30/09:00am 3.4 0.8 3.3 99 0.0 N 6 9 3 5 1024.1 1025.4 0.0
30/08:30am 3.0 0.2 2.9 99 0.0 NE 7 9 4 5 1024.1 1025.4 0.0
30/08:00am 2.9 1.4 2.8 99 0.0 CALM 0 0 0 0 1023.8 1025.0 0.0
30/07:39am 2.9 0.0 2.8 99 0.0 ESE 7 11 4 6 1023.6 1024.8 0.0
30/07:30am 2.9 0.0 2.8 99 0.0 ESE 7 9 4 5 1023.6 1024.8 0.0
30/07:00am 2.5 -0.4 2.4 99 0.0 ESE 7 9 4 5 1023.2 1024.5 0.0
30/06:30am 2.4 -0.9 2.3 99 0.0 ESE 9 11 5 6 1023.1 1024.4 0.0
30/06:11am 2.8 -0.5 2.7 99 0.0 E 9 11 5 6 1022.9 1024.2 0.0
30/06:00am 2.5 -1.2 2.4 99 0.0 ESE 11 13 6 7 1023.0 1024.3 0.0
30/05:30am 2.6 -1.1 2.5 99 0.0 ESE 11 13 6 7 1022.8 1024.1 0.0
30/05:00am 2.2 -1.9 2.1 99 0.0 ESE 13 17 7 9 1022.4 1023.7 0.0
30/04:30am 0.0 -3.3 -0.1 99 0.0 SE 7 11 4 6 1022.3 1023.5 0.0
30/04:28am 0.0 -3.3 -0.1 99 0.0 SE 7 11 4 6 1022.3 1023.5 0.0
30/04:00am -0.2 -3.9 -0.3 99 0.0 SE 9 11 5 6 1022.1 1023.3 0.0
30/03:58am -0.3 -4.1 -0.4 99 0.0 SE 9 11 5 6 1022.1 1023.3 0.0
30/03:57am -0.2 -3.9 -0.3 99 0.0 SE 9 11 5 6 1022.1 1023.3 0.0
30/03:34am 0.5 -2.6 0.4 99 0.0 SSE 6 7 3 4 1021.9 1023.1 0.0
30/03:33am 0.4 -2.7 0.3 99 0.0 SSE 6 7 3 4 1021.9 1023.1 0.0
30/03:32am 0.3 -2.8 0.2 99 0.0 SSE 6 7 3 4 1021.9 1023.1 0.0
30/03:30am 0.2 -2.9 0.1 99 0.0 SSE 6 7 3 4 1021.9 1023.1 0.0
30/03:27am 0.0 -3.1 -0.1 99 0.0 SE 6 7 3 4 1021.9 1023.1 0.0
30/03:19am 0.1 -2.6 0.0 99 0.0 SE 4 7 2 4 1022.2 1023.4 0.0
30/03:00am 0.7 -2.9 0.6 99 0.0 SE 9 11 5 6 1022.1 1023.3 0.0
30/02:30am 1.6 -1.3 1.5 99 0.0 E 6 7 3 4 1022.3 1023.5 0.0
30/02:00am 1.4 -0.4 1.3 99 0.0 CALM 0 0 0 0 1022.4 1023.7 0.0
30/01:30am 1.5 -0.7 0.9 96 0.2 NE 2 6 1 3 1022.4 1023.7 0.0
30/01:00am 3.2 0.2 2.3 94 0.4 ENE 7 7 4 4 1022.5 1023.8 0.0
30/12:30am 4.1 0.5 3.1 93 0.4 NNE 11 13 6 7 1022.4 1023.7 0.0
30/12:00am 4.8 1.7 3.6 92 0.5 NNE 9 13 5 7 1022.5 1023.8 0.0
 
Date/Time
EST
Temp
°C
App
Temp
°C
Dew
Point
°C
Rel
Hum
%
Delta-T
°C
Wind Press
QNH
hPa
Press
MSL
hPa
Rain since
9am
mm
Dir  Spd
km/h
Gust
km/h
Spd
kts
Gust
kts
29/11:30pm 5.2 2.2 4.0 92 0.5 NE 9 13 5 7 1022.7 1024.0 0.0
29/11:00pm 5.2 1.4 3.7 90 0.6 N 13 17 7 9 1022.4 1023.7 0.0
29/10:30pm 5.5 1.7 3.7 88 0.8 N 13 15 7 8 1022.3 1023.5 0.0
29/10:00pm 5.8 2.0 4.0 88 0.8 NNE 13 17 7 9 1022.2 1023.4 0.0
29/09:30pm 6.2 1.6 3.7 84 1.1 NNE 17 20 9 11 1021.9 1023.1 0.0
29/09:00pm 6.2 1.6 3.7 84 1.1 N 17 20 9 11 1022.1 1023.3 0.0
29/08:30pm 6.2 2.0 4.0 86 1.0 NE 15 20 8 11 1021.8 1023.0 0.0
29/08:00pm 6.4 0.8 3.6 82 1.2 NW 22 30 12 16 1021.2 1022.5 0.0
29/07:30pm 6.8 0.8 3.4 79 1.5 NW 24 32 13 17 1020.9 1022.1 0.0
29/07:00pm 6.9 1.7 3.7 80 1.4 NW 20 26 11 14 1020.6 1021.8 0.0
29/06:30pm 7.1 0.8 3.9 80 1.4 NW 26 33 14 18 1020.4 1021.6 0.0
29/06:00pm 6.9 1.8 4.0 82 1.3 NNW 20 33 11 18 1020.2 1021.4 0.0
29/05:30pm 7.4 0.1 4.4 81 1.4 NNW 32 39 17 21 1019.7 1021.0 0.0
29/05:00pm 8.2 1.3 4.4 77 1.7 NNW 30 35 16 19 1019.6 1020.9 0.0
29/04:30pm 9.1 2.6 4.5 73 2.1 NNW 28 33 15 18 1019.6 1020.9 0.0
29/04:00pm 9.3 2.3 3.9 69 2.4 NNW 30 37 16 20 1019.5 1020.8 0.0
29/03:30pm 10.1 2.7 4.0 66 2.8 NW 32 37 17 20 1019.4 1020.6 0.0
29/03:00pm 11.7 4.3 4.2 60 3.5 NW 32 41 17 22 1019.3 1020.5 0.0
29/02:30pm 11.0 4.0 4.0 62 3.2 NNW 30 37 16 20 1019.2 1020.4 0.0
29/02:00pm 12.1 5.4 3.6 56 3.9 NW 28 39 15 21 1019.3 1020.5 0.0
29/01:30pm 11.7 4.9 3.0 55 3.9 NW 28 33 15 18 1019.7 1021.0 0.0
29/01:00pm 11.9 6.4 1.8 50 4.4 WNW 20 30 11 16 1020.2 1021.4 0.0
29/12:30pm 11.4 5.9 1.9 52 4.2 WNW 20 30 11 16 1020.9 1022.1 0.0
29/12:00pm 10.8 5.5 2.1 55 3.8 WNW 19 28 10 15 1021.4 1022.7 0.0
29/11:30am 10.3 4.8 1.9 56 3.7 WNW 20 32 11 17 1021.9 1023.1 0.0
29/11:00am 9.7 4.4 1.6 57 3.5 W 19 28 10 15 1022.4 1023.7 0.0
29/10:30am 9.0 3.5 1.9 61 3.1 WNW 20 30 11 16 1022.8 1024.1 0.0
29/10:00am 7.6 4.6 1.7 66 2.5 WNW 7 11 4 6 1023.0 1024.3 0.0
29/09:30am 6.3 3.3 2.2 75 1.7 NNW 7 11 4 6 1023.0 1024.3 0.0
29/09:00am 5.0 2.3 2.7 85 1.0 ESE 6 7 3 4 1023.0 1024.3 0.2
29/08:30am 2.2 -0.9 1.6 96 0.2 S 7 9 4 5 1023.3 1024.6 0.2
29/08:00am -0.6 -4.1 -1.0 97 0.1 S 7 9 4 5 1023.0 1024.3 0.2
29/07:30am -2.1 -5.7 -2.4 98 0.0 E 7 9 4 5 1022.9 1024.2 0.2
29/07:00am -2.7 -5.1 -3.0 98 0.0 CALM 0 0 0 0 1023.0 1024.3 0.2
29/06:30am -3.0 -6.7 -3.1 99 -0.1 ENE 7 9 4 5 1023.1 1024.4 0.2
29/06:00am -2.5 -6.6 -2.8 98 0.0 SSW 9 9 5 5 1023.3 1024.6 0.2
29/05:30am -2.6 -6.3 -2.9 98 0.0 S 7 9 4 5 1022.8 1024.1 0.2
29/05:00am -2.1 -5.7 -2.2 99 -0.1 ESE 7 9 4 5 1022.7 1024.0 0.2
29/04:30am -1.7 -5.7 -2.0 98 0.0 ESE 9 11 5 6 1022.6 1023.9 0.2
29/04:00am -1.9 -5.9 -2.3 97 0.1 ESE 9 11 5 6 1022.4 1023.7 0.2
29/03:30am -1.4 -5.3 -1.8 97 0.1 ESE 9 11 5 6 1022.4 1023.7 0.2
29/03:00am -1.3 -5.3 -1.9 96 0.2 SE 9 11 5 6 1022.6 1023.9 0.2
29/02:30am 0.9 -2.2 -0.1 93 0.4 N 6 9 3 5 1022.9 1024.2 0.2
29/02:00am 2.1 -1.8 1.2 94 0.4 ENE 11 13 6 7 1022.8 1024.1 0.2
29/01:30am 2.1 -1.0 0.3 88 0.7 ENE 6 9 3 5 1023.2 1024.5 0.2
29/01:00am 2.5 -1.5 0.6 87 0.7 NNE 11 13 6 7 1023.3 1024.6 0.2
29/12:30am 3.5 -1.2 0.7 82 1.1 N 15 19 8 10 1023.3 1024.6 0.2
29/12:00am 3.6 -1.1 1.2 84 1.0 N 15 17 8 9 1023.7 1024.9 0.2
 
Date/Time
EST
Temp
°C
App
Temp
°C
Dew
Point
°C
Rel
Hum
%
Delta-T
°C
Wind Press
QNH
hPa
Press
MSL
hPa
Rain since
9am
mm
Dir  Spd
km/h
Gust
km/h
Spd
kts
Gust
kts
28/11:30pm 3.5 -1.5 1.1 84 1.0 N 17 19 9 10 1023.8 1025.0 0.2
28/11:00pm 4.5 -0.5 1.4 80 1.3 N 17 20 9 11 1023.8 1025.0 0.2
28/10:30pm 4.1 -0.2 1.0 80 1.2 N 13 17 7 9 1023.8 1025.0 0.2
28/10:00pm 4.8 -0.2 1.5 79 1.3 N 17 20 9 11 1023.9 1025.2 0.2
28/09:30pm 4.4 -0.6 1.3 80 1.3 NNE 17 20 9 11 1023.9 1025.2 0.2
28/09:00pm 4.3 0.0 1.0 79 1.3 NNW 13 19 7 10 1023.8 1025.0 0.2
28/08:30pm 5.2 0.3 1.7 78 1.4 N 17 20 9 11 1023.8 1025.0 0.2
28/08:00pm 5.0 0.7 1.3 77 1.5 N 13 17 7 9 1023.9 1025.2 0.2
28/07:30pm 5.8 0.8 1.5 74 1.8 NW 17 24 9 13 1023.8 1025.0 0.2
28/07:00pm 6.2 1.3 1.7 73 1.9 N 17 20 9 11 1023.4 1024.7 0.2
28/06:30pm 7.2 0.9 1.7 68 2.3 NW 24 33 13 18 1023.2 1024.5 0.2
28/06:00pm 8.0 2.1 2.0 66 2.6 WNW 22 28 12 15 1023.0 1024.3 0.2
28/05:30pm 7.9 1.7 2.2 67 2.4 NW 24 32 13 17 1022.8 1024.1 0.2
28/05:00pm 9.2 3.1 2.5 63 2.9 WNW 24 35 13 19 1022.6 1023.9 0.2
28/04:30pm 10.3 4.2 2.7 59 3.4 WNW 24 35 13 19 1022.2 1023.4 0.2
28/04:00pm 11.1 4.3 2.9 57 3.7 WNW 28 37 15 20 1022.2 1023.4 0.2
28/03:30pm 12.1 5.6 2.8 53 4.2 WNW 26 33 14 18 1022.2 1023.4 0.2
28/03:00pm 12.3 5.8 2.7 52 4.3 WNW 26 39 14 21 1022.1 1023.3 0.2
28/02:30pm 12.1 5.2 2.3 51 4.4 WNW 28 39 15 21 1022.1 1023.3 0.2
28/02:00pm 11.7 4.8 2.5 53 4.1 WNW 28 37 15 20 1022.2 1023.4 0.2
28/01:30pm 12.0 5.4 2.2 51 4.4 WNW 26 39 14 21 1022.3 1023.5 0.2
28/01:00pm 11.9 5.0 2.4 52 4.2 WNW 28 37 15 20 1022.6 1023.9 0.2
28/12:30pm 12.5 6.9 3.7 55 4.1 WNW 22 33 12 18 1022.8 1024.1 0.2
28/12:00pm 11.5 6.0 4.0 60 3.5 NW 22 35 12 19 1023.1 1024.4 0.0
28/11:30am 11.0 6.5 4.2 63 3.1 NNW 17 30 9 16 1023.6 1024.8 0.0
28/11:00am 10.8 6.3 4.0 63 3.1 NW 17 28 9 15 1023.9 1025.2 0.0
28/10:30am 8.5 3.3 2.7 67 2.5 N 19 26 10 14 1024.3 1025.6 0.0
28/10:00am 7.7 2.9 2.8 71 2.1 NNW 17 22 9 12 1024.5 1025.8 0.0
28/09:30am 6.9 2.8 2.4 73 1.9 NNW 13 19 7 10 1024.2 1025.5 0.0
28/09:00am 6.1 1.7 2.6 78 1.5 N 15 19 8 10 1024.1 1025.4 0.0
28/08:30am 5.1 1.0 2.3 82 1.2 N 13 19 7 10 1024.1 1025.4 0.0
28/08:00am 3.8 0.3 1.5 85 0.9 NNE 9 11 5 6 1023.8 1025.0 0.0
28/07:30am 2.6 -1.3 1.0 89 0.6 NNE 11 13 6 7 1023.8 1025.0 0.0
28/07:00am 2.1 -1.9 0.5 89 0.6 N 11 13 6 7 1023.6 1024.8 0.0
28/06:30am 2.5 -1.9 0.6 87 0.7 N 13 17 7 9 1023.2 1024.5 0.0
28/06:00am 2.6 -2.1 0.8 88 0.7 N 15 17 8 9 1022.9 1024.2 0.0
28/05:30am 2.1 -0.6 0.5 89 0.6 E 4 9 2 5 1022.7 1024.0 0.0
28/05:00am 3.7 -0.1 1.6 86 0.8 N 11 15 6 8 1022.0 1023.2 0.0
28/04:30am 3.8 -0.8 1.5 85 0.9 N 15 19 8 10 1021.7 1022.9 0.0
28/04:00am 4.4 -0.9 2.1 85 0.9 N 19 22 10 12 1021.4 1022.7 0.0
28/03:30am 4.8 -0.5 2.0 82 1.2 N 19 24 10 13 1021.2 1022.5 0.0
28/03:00am 5.0 -0.2 2.2 82 1.2 N 19 20 10 11 1021.2 1022.5 0.0
28/02:30am 4.9 0.3 1.6 79 1.4 N 15 17 8 9 1021.3 1022.6 0.0
28/02:00am 4.8 0.2 1.3 78 1.4 N 15 17 8 9 1021.2 1022.5 0.0
28/01:30am 5.2 0.9 1.1 75 1.7 NW 13 20 7 11 1021.4 1022.7 0.0
28/01:00am 6.0 0.6 1.5 73 1.9 NW 19 22 10 12 1021.0 1022.3 0.0
28/12:30am 5.2 1.2 2.7 84 1.1 NNW 13 17 7 9 1020.9 1022.1 0.0
28/12:00am 7.3 3.0 3.0 74 1.9 WNW 15 22 8 12 1020.8 1022.0 0.0
 
Date/Time
EST
Temp
°C
App
Temp
°C
Dew
Point
°C
Rel
Hum
%
Delta-T
°C
Wind Press
QNH
hPa
Press
MSL
hPa
Rain since
9am
mm
Dir  Spd
km/h
Gust
km/h
Spd
kts
Gust
kts
27/11:30pm 6.5 2.0 4.0 84 1.1 NW 17 22 9 12 1020.9 1022.1 0.0
27/11:00pm 7.1 3.0 4.2 82 1.3 N 15 19 8 10 1020.8 1022.0 0.0
27/10:30pm 6.7 1.7 4.4 85 1.0 NNW 20 26 11 14 1019.9 1021.1 0.0
27/10:00pm 7.5 2.7 4.5 81 1.4 N 19 28 10 15 1020.1 1021.3 0.0
27/09:30pm 7.3 1.1 4.4 82 1.3 NNW 26 32 14 17 1019.6 1020.9 0.0
27/09:00pm 7.2 1.4 4.5 83 1.2 NNW 24 30 13 16 1019.5 1020.8 0.0
27/08:30pm 7.5 2.1 4.5 81 1.4 NNW 22 28 12 15 1019.6 1020.9 0.0
27/08:00pm 7.8 2.8 4.4 79 1.5 NNW 20 24 11 13 1019.4 1020.6 0.0
27/07:30pm 7.2 1.7 3.8 79 1.5 NNW 22 28 12 15 1019.0 1020.2 0.0
27/07:00pm 7.9 1.9 3.6 74 1.9 NNW 24 30 13 16 1018.8 1020.0 0.0
27/06:30pm 7.8 2.6 3.5 74 1.9 NW 20 28 11 15 1018.2 1019.4 0.0
27/06:00pm 7.7 3.0 3.0 72 2.1 WNW 17 33 9 18 1017.5 1018.7 0.0
27/05:30pm 8.0 2.7 3.1 71 2.2 NW 20 28 11 15 1017.2 1018.4 0.0

Other Formats:

Comma delimited format used in spreadsheet applications
http://www.bom.gov.au/fwo/IDN60801/IDN60801.94926.axf

JavaScript Object Notation format (JSON) in row-major order
http://www.bom.gov.au/fwo/IDN60801/IDN60801.94926.json